sensor_id;sensor_type;location;lat;lon;timestamp;pressure;altitude;pressure_sealevel;temperature;humidity
10978;BME280;5542;48.272;10.794;2022-08-21T00:00:41;95840.22;;;17.87;84.13
10978;BME280;5542;48.272;10.794;2022-08-21T00:03:09;95839.94;;;17.89;84.10
10978;BME280;5542;48.272;10.794;2022-08-21T00:05:38;95844.47;;;17.88;84.27
10978;BME280;5542;48.272;10.794;2022-08-21T00:08:05;95844.69;;;18.02;83.17
10978;BME280;5542;48.272;10.794;2022-08-21T00:10:32;95843.66;;;17.93;83.42
10978;BME280;5542;48.272;10.794;2022-08-21T00:13:02;95849.00;;;17.93;83.31
10978;BME280;5542;48.272;10.794;2022-08-21T00:15:30;95838.88;;;17.95;83.13
10978;BME280;5542;48.272;10.794;2022-08-21T00:17:57;95836.75;;;17.97;83.06
10978;BME280;5542;48.272;10.794;2022-08-21T00:20:25;95836.22;;;17.95;82.90
10978;BME280;5542;48.272;10.794;2022-08-21T00:22:52;95833.31;;;17.86;83.36
10978;BME280;5542;48.272;10.794;2022-08-21T00:25:20;95838.88;;;17.95;82.68
10978;BME280;5542;48.272;10.794;2022-08-21T00:27:46;95826.19;;;17.77;83.65
10978;BME280;5542;48.272;10.794;2022-08-21T00:30:16;95832.28;;;17.77;83.96
10978;BME280;5542;48.272;10.794;2022-08-21T00:32:44;95828.03;;;17.76;83.73
10978;BME280;5542;48.272;10.794;2022-08-21T00:35:13;95824.31;;;17.67;83.72
10978;BME280;5542;48.272;10.794;2022-08-21T00:37:41;95828.03;;;17.76;83.84
10978;BME280;5542;48.272;10.794;2022-08-21T00:40:11;95828.56;;;17.68;84.04
10978;BME280;5542;48.272;10.794;2022-08-21T00:42:38;95825.91;;;17.68;84.06
10978;BME280;5542;48.272;10.794;2022-08-21T00:45:06;95817.63;;;17.70;83.64
10978;BME280;5542;48.272;10.794;2022-08-21T00:47:34;95821.91;;;17.65;84.09
10978;BME280;5542;48.272;10.794;2022-08-21T00:50:02;95815.53;;;17.66;84.34
10978;BME280;5542;48.272;10.794;2022-08-21T00:52:31;95819.53;;;17.74;83.68
10978;BME280;5542;48.272;10.794;2022-08-21T00:55:00;95815.00;;;17.75;83.51
10978;BME280;5542;48.272;10.794;2022-08-21T00:57:30;95821.38;;;17.63;84.40
10978;BME280;5542;48.272;10.794;2022-08-21T01:00:00;95820.06;;;17.61;84.48
10978;BME280;5542;48.272;10.794;2022-08-21T01:02:27;95818.72;;;17.63;83.93
10978;BME280;5542;48.272;10.794;2022-08-21T01:04:55;95815.28;;;17.58;84.28
10978;BME280;5542;48.272;10.794;2022-08-21T01:07:22;95817.94;;;17.58;84.02
10978;BME280;5542;48.272;10.794;2022-08-21T01:09:50;95816.34;;;17.52;84.37
10978;BME280;5542;48.272;10.794;2022-08-21T01:12:17;95817.16;;;17.52;84.26
10978;BME280;5542;48.272;10.794;2022-08-21T01:14:44;95814.50;;;17.52;84.04
10978;BME280;5542;48.272;10.794;2022-08-21T01:17:13;95817.41;;;17.51;84.18
10978;BME280;5542;48.272;10.794;2022-08-21T01:19:41;95816.63;;;17.50;84.00
10978;BME280;5542;48.272;10.794;2022-08-21T01:22:09;95818.75;;;17.58;83.32
10978;BME280;5542;48.272;10.794;2022-08-21T01:24:36;95823.28;;;17.48;84.11
10978;BME280;5542;48.272;10.794;2022-08-21T01:27:03;95816.63;;;17.45;84.33
10978;BME280;5542;48.272;10.794;2022-08-21T01:29:34;95822.50;;;17.47;84.14
10978;BME280;5542;48.272;10.794;2022-08-21T01:32:06;95820.38;;;17.44;84.34
10978;BME280;5542;48.272;10.794;2022-08-21T01:34:36;95817.97;;;17.48;83.61
10978;BME280;5542;48.272;10.794;2022-08-21T01:37:03;95819.59;;;17.38;84.05
10978;BME280;5542;48.272;10.794;2022-08-21T01:39:31;95813.69;;;17.47;83.54
10978;BME280;5542;48.272;10.794;2022-08-21T01:41:58;95806.03;;;17.40;83.98
10978;BME280;5542;48.272;10.794;2022-08-21T01:44:25;95803.91;;;17.32;84.48
10978;BME280;5542;48.272;10.794;2022-08-21T01:46:52;95811.34;;;17.30;84.83
10978;BME280;5542;48.272;10.794;2022-08-21T01:49:19;95801.22;;;17.37;83.83
10978;BME280;5542;48.272;10.794;2022-08-21T01:51:46;95809.22;;;17.32;83.95
10978;BME280;5542;48.272;10.794;2022-08-21T01:54:12;95811.34;;;17.30;83.98
10978;BME280;5542;48.272;10.794;2022-08-21T01:56:44;95802.59;;;17.24;84.60
10978;BME280;5542;48.272;10.794;2022-08-21T01:59:12;95797.53;;;17.33;83.79
10978;BME280;5542;48.272;10.794;2022-08-21T02:01:38;95801.75;;;17.44;82.52
10978;BME280;5542;48.272;10.794;2022-08-21T02:04:05;95800.97;;;17.23;84.02
10978;BME280;5542;48.272;10.794;2022-08-21T02:06:32;95799.41;;;17.17;84.64
10978;BME280;5542;48.272;10.794;2022-08-21T02:08:59;95792.00;;;17.14;84.83
10978;BME280;5542;48.272;10.794;2022-08-21T02:11:26;95799.97;;;17.14;84.93
10978;BME280;5542;48.272;10.794;2022-08-21T02:13:54;95792.50;;;17.16;84.48
10978;BME280;5542;48.272;10.794;2022-08-21T02:16:21;95791.44;;;17.17;84.35
10978;BME280;5542;48.272;10.794;2022-08-21T02:18:47;95789.06;;;17.15;84.04
10978;BME280;5542;48.272;10.794;2022-08-21T02:21:14;95787.47;;;17.09;84.65
10978;BME280;5542;48.272;10.794;2022-08-21T02:23:41;95778.94;;;17.12;83.92
10978;BME280;5542;48.272;10.794;2022-08-21T02:26:08;95781.63;;;17.07;84.19
10978;BME280;5542;48.272;10.794;2022-08-21T02:28:35;95776.84;;;17.09;84.42
10978;BME280;5542;48.272;10.794;2022-08-21T02:31:04;95783.19;;;17.13;84.17
10978;BME280;5542;48.272;10.794;2022-08-21T02:33:31;95784.00;;;17.09;83.85
10978;BME280;5542;48.272;10.794;2022-08-21T02:35:58;95782.41;;;17.08;83.73
10978;BME280;5542;48.272;10.794;2022-08-21T02:38:27;95780.56;;;17.03;84.33
10978;BME280;5542;48.272;10.794;2022-08-21T02:40:55;95782.97;;;17.05;84.19
10978;BME280;5542;48.272;10.794;2022-08-21T02:43:23;95778.44;;;16.95;84.43
10978;BME280;5542;48.272;10.794;2022-08-21T02:45:51;95772.06;;;17.01;83.75
10978;BME280;5542;48.272;10.794;2022-08-21T02:48:22;95767.56;;;16.97;83.91
10978;BME280;5542;48.272;10.794;2022-08-21T02:50:53;95782.94;;;16.95;84.26
10978;BME280;5542;48.272;10.794;2022-08-21T02:53:20;95772.06;;;16.96;84.48
10978;BME280;5542;48.272;10.794;2022-08-21T02:55:48;95777.91;;;16.93;84.23
10978;BME280;5542;48.272;10.794;2022-08-21T02:58:18;95776.59;;;16.91;84.63
10978;BME280;5542;48.272;10.794;2022-08-21T03:00:45;95773.94;;;16.96;84.01
10978;BME280;5542;48.272;10.794;2022-08-21T03:03:11;95774.97;;;16.95;84.04
10978;BME280;5542;48.272;10.794;2022-08-21T03:05:42;95774.19;;;16.89;84.19
10978;BME280;5542;48.272;10.794;2022-08-21T03:08:11;95774.47;;;16.82;84.40
10978;BME280;5542;48.272;10.794;2022-08-21T03:10:40;95778.44;;;16.85;83.89
10978;BME280;5542;48.272;10.794;2022-08-21T03:13:07;95776.84;;;16.84;84.02
10978;BME280;5542;48.272;10.794;2022-08-21T03:15:34;95780.56;;;16.78;84.13
10978;BME280;5542;48.272;10.794;2022-08-21T03:18:01;95772.59;;;16.83;83.68
10978;BME280;5542;48.272;10.794;2022-08-21T03:20:29;95779.22;;;16.75;84.39
10978;BME280;5542;48.272;10.794;2022-08-21T03:22:59;95782.97;;;16.74;84.30
10978;BME280;5542;48.272;10.794;2022-08-21T03:25:26;95784.28;;;16.82;83.67
10978;BME280;5542;48.272;10.794;2022-08-21T03:27:53;95779.50;;;16.79;83.82
10978;BME280;5542;48.272;10.794;2022-08-21T03:30:21;95775.25;;;16.73;84.03
10978;BME280;5542;48.272;10.794;2022-08-21T03:32:48;95786.16;;;16.76;83.67
10978;BME280;5542;48.272;10.794;2022-08-21T03:35:15;95776.84;;;16.74;83.70
10978;BME280;5542;48.272;10.794;2022-08-21T03:37:41;95788.50;;;16.68;84.30
10978;BME280;5542;48.272;10.794;2022-08-21T03:40:11;95785.84;;;16.68;84.43
10978;BME280;5542;48.272;10.794;2022-08-21T03:42:38;95787.72;;;16.67;84.16
10978;BME280;5542;48.272;10.794;2022-08-21T03:45:06;95789.81;;;16.65;84.51
10978;BME280;5542;48.272;10.794;2022-08-21T03:47:33;95796.47;;;16.62;84.37
10978;BME280;5542;48.272;10.794;2022-08-21T03:50:00;95794.84;;;16.61;84.50
10978;BME280;5542;48.272;10.794;2022-08-21T03:52:27;95796.47;;;16.62;84.40
10978;BME280;5542;48.272;10.794;2022-08-21T03:54:53;95799.13;;;16.62;84.20
10978;BME280;5542;48.272;10.794;2022-08-21T03:57:21;95798.06;;;16.63;84.00
10978;BME280;5542;48.272;10.794;2022-08-21T03:59:48;95798.56;;;16.60;83.75
10978;BME280;5542;48.272;10.794;2022-08-21T04:02:16;95791.69;;;16.59;83.77
10978;BME280;5542;48.272;10.794;2022-08-21T04:04:46;95792.47;;;16.55;83.70
10978;BME280;5542;48.272;10.794;2022-08-21T04:07:13;95793.81;;;16.52;83.85
10978;BME280;5542;48.272;10.794;2022-08-21T04:09:39;95793.00;;;16.52;83.63
10978;BME280;5542;48.272;10.794;2022-08-21T04:12:06;95793.81;;;16.52;83.38
10978;BME280;5542;48.272;10.794;2022-08-21T04:14:35;95792.47;;;16.50;83.26
10978;BME280;5542;48.272;10.794;2022-08-21T04:17:01;95800.72;;;16.48;83.23
10978;BME280;5542;48.272;10.794;2022-08-21T04:19:28;95803.59;;;16.47;83.55
10978;BME280;5542;48.272;10.794;2022-08-21T04:21:54;95795.91;;;16.45;83.20
10978;BME280;5542;48.272;10.794;2022-08-21T04:24:21;95802.28;;;16.49;82.61
10978;BME280;5542;48.272;10.794;2022-08-21T04:26:48;95796.72;;;16.46;82.69
10978;BME280;5542;48.272;10.794;2022-08-21T04:29:15;95806.81;;;16.44;82.73
10978;BME280;5542;48.272;10.794;2022-08-21T04:31:43;95797.75;;;16.39;83.02
10978;BME280;5542;48.272;10.794;2022-08-21T04:34:09;95809.19;;;16.40;82.98
10978;BME280;5542;48.272;10.794;2022-08-21T04:36:36;95815.00;;;16.47;82.08
10978;BME280;5542;48.272;10.794;2022-08-21T04:39:02;95817.94;;;16.41;82.34
10978;BME280;5542;48.272;10.794;2022-08-21T04:41:29;95816.34;;;16.34;82.80
10978;BME280;5542;48.272;10.794;2022-08-21T04:43:56;95813.38;;;16.26;83.24
10978;BME280;5542;48.272;10.794;2022-08-21T04:46:23;95819.50;;;16.31;83.25
10978;BME280;5542;48.272;10.794;2022-08-21T04:48:51;95823.75;;;16.27;82.97
10978;BME280;5542;48.272;10.794;2022-08-21T04:51:21;95815.53;;;16.24;82.92
10978;BME280;5542;48.272;10.794;2022-08-21T04:53:51;95817.34;;;16.23;82.96
10978;BME280;5542;48.272;10.794;2022-08-21T04:56:21;95814.47;;;16.25;82.99
10978;BME280;5542;48.272;10.794;2022-08-21T04:58:50;95816.03;;;16.26;82.94
10978;BME280;5542;48.272;10.794;2022-08-21T05:01:20;95825.59;;;16.22;83.30
10978;BME280;5542;48.272;10.794;2022-08-21T05:03:48;95816.81;;;16.21;83.61
10978;BME280;5542;48.272;10.794;2022-08-21T05:06:18;95820.84;;;16.24;83.81
10978;BME280;5542;48.272;10.794;2022-08-21T05:08:47;95824.81;;;16.26;83.73
10978;BME280;5542;48.272;10.794;2022-08-21T05:11:15;95831.44;;;16.24;83.68
10978;BME280;5542;48.272;10.794;2022-08-21T05:13:41;95830.38;;;16.20;83.74
10978;BME280;5542;48.272;10.794;2022-08-21T05:16:08;95831.41;;;16.19;84.22
10978;BME280;5542;48.272;10.794;2022-08-21T05:18:34;95829.56;;;16.19;84.47
10978;BME280;5542;48.272;10.794;2022-08-21T05:21:01;95823.97;;;16.16;84.75
10978;BME280;5542;48.272;10.794;2022-08-21T05:23:29;95829.59;;;16.24;84.98
10978;BME280;5542;48.272;10.794;2022-08-21T05:25:56;95834.09;;;16.29;84.71
10978;BME280;5542;48.272;10.794;2022-08-21T05:28:23;95828.25;;;16.32;84.87
10978;BME280;5542;48.272;10.794;2022-08-21T05:30:50;95838.09;;;16.31;84.89
10978;BME280;5542;48.272;10.794;2022-08-21T05:33:17;95837.56;;;16.29;85.36
10978;BME280;5542;48.272;10.794;2022-08-21T05:35:43;95830.38;;;16.30;85.60
10978;BME280;5542;48.272;10.794;2022-08-21T05:38:11;95830.13;;;16.36;85.49
10978;BME280;5542;48.272;10.794;2022-08-21T05:40:39;95830.13;;;16.42;85.49
10978;BME280;5542;48.272;10.794;2022-08-21T05:43:06;95830.94;;;16.47;85.61
10978;BME280;5542;48.272;10.794;2022-08-21T05:45:32;95831.00;;;16.62;84.25
10978;BME280;5542;48.272;10.794;2022-08-21T05:48:05;95837.63;;;16.65;85.01
10978;BME280;5542;48.272;10.794;2022-08-21T05:50:32;95833.38;;;16.64;85.12
10978;BME280;5542;48.272;10.794;2022-08-21T05:52:59;95837.41;;;16.72;85.31
10978;BME280;5542;48.272;10.794;2022-08-21T05:55:25;95833.41;;;16.89;84.20
10978;BME280;5542;48.272;10.794;2022-08-21T05:57:53;95833.69;;;16.98;84.06
10978;BME280;5542;48.272;10.794;2022-08-21T06:00:20;95833.44;;;17.15;83.08
10978;BME280;5542;48.272;10.794;2022-08-21T06:02:48;95831.28;;;17.27;81.98
10978;BME280;5542;48.272;10.794;2022-08-21T06:05:16;95831.03;;;17.39;80.67
10978;BME280;5542;48.272;10.794;2022-08-21T06:07:42;95830.47;;;17.42;80.63
10978;BME280;5542;48.272;10.794;2022-08-21T06:10:09;95830.69;;;17.56;79.56
10978;BME280;5542;48.272;10.794;2022-08-21T06:12:36;95828.81;;;17.82;78.09
10978;BME280;5542;48.272;10.794;2022-08-21T06:15:05;95832.00;;;17.79;78.34
10978;BME280;5542;48.272;10.794;2022-08-21T06:17:32;95827.97;;;17.97;76.70
10978;BME280;5542;48.272;10.794;2022-08-21T06:19:58;95835.66;;;18.03;75.97
10978;BME280;5542;48.272;10.794;2022-08-21T06:22:25;95839.06;;;18.14;76.42
10978;BME280;5542;48.272;10.794;2022-08-21T06:24:51;95831.78;;;18.35;75.80
10978;BME280;5542;48.272;10.794;2022-08-21T06:27:18;95831.19;;;18.48;76.10
10978;BME280;5542;48.272;10.794;2022-08-21T06:29:44;95827.81;;;18.77;76.57
10978;BME280;5542;48.272;10.794;2022-08-21T06:32:12;95826.25;;;19.10;74.38
10978;BME280;5542;48.272;10.794;2022-08-21T06:34:40;95830.22;;;19.41;72.02
10978;BME280;5542;48.272;10.794;2022-08-21T06:37:08;95831.47;;;19.49;72.21
10978;BME280;5542;48.272;10.794;2022-08-21T06:39:34;95831.34;;;19.64;68.07
10978;BME280;5542;48.272;10.794;2022-08-21T06:42:01;95834.53;;;19.66;69.78
10978;BME280;5542;48.272;10.794;2022-08-21T06:44:28;95824.19;;;19.84;67.35
10978;BME280;5542;48.272;10.794;2022-08-21T06:46:55;95834.13;;;20.02;67.13
10978;BME280;5542;48.272;10.794;2022-08-21T06:49:23;95825.31;;;20.26;65.23
10978;BME280;5542;48.272;10.794;2022-08-21T06:51:50;95815.28;;;20.36;68.86
10978;BME280;5542;48.272;10.794;2022-08-21T06:54:16;95812.94;;;20.73;65.20
10978;BME280;5542;48.272;10.794;2022-08-21T06:56:43;95815.47;;;21.15;63.01
10978;BME280;5542;48.272;10.794;2022-08-21T06:59:09;95815.75;;;21.33;66.02
10978;BME280;5542;48.272;10.794;2022-08-21T07:01:36;95824.31;;;21.62;62.11
10978;BME280;5542;48.272;10.794;2022-08-21T07:04:03;95819.75;;;22.04;59.48
10978;BME280;5542;48.272;10.794;2022-08-21T07:06:31;95822.56;;;22.27;58.59
10978;BME280;5542;48.272;10.794;2022-08-21T07:08:58;95825.47;;;22.53;56.81
10978;BME280;5542;48.272;10.794;2022-08-21T07:11:26;95824.41;;;22.76;56.23
10978;BME280;5542;48.272;10.794;2022-08-21T07:13:53;95819.50;;;22.92;57.20
10978;BME280;5542;48.272;10.794;2022-08-21T07:16:22;95820.25;;;23.29;54.15
10978;BME280;5542;48.272;10.794;2022-08-21T07:18:49;95821.13;;;23.46;53.30
10978;BME280;5542;48.272;10.794;2022-08-21T07:21:16;95810.44;;;23.55;51.13
10978;BME280;5542;48.272;10.794;2022-08-21T07:23:46;95821.13;;;23.46;51.36
10978;BME280;5542;48.272;10.794;2022-08-21T07:26:15;95819.56;;;23.54;53.13
10978;BME280;5542;48.272;10.794;2022-08-21T07:28:43;95816.94;;;23.63;52.39
10978;BME280;5542;48.272;10.794;2022-08-21T07:31:10;95812.47;;;23.81;51.74
10978;BME280;5542;48.272;10.794;2022-08-21T07:33:39;95818.22;;;23.96;54.81
10978;BME280;5542;48.272;10.794;2022-08-21T07:36:06;95808.38;;;24.49;53.32
10978;BME280;5542;48.272;10.794;2022-08-21T07:38:33;95820.44;;;24.69;51.33
10978;BME280;5542;48.272;10.794;2022-08-21T07:41:04;95810.94;;;24.89;49.16
10978;BME280;5542;48.272;10.794;2022-08-21T07:43:33;95807.97;;;25.08;46.95
10978;BME280;5542;48.272;10.794;2022-08-21T07:46:00;95811.44;;;25.08;48.48
10978;BME280;5542;48.272;10.794;2022-08-21T07:48:26;95812.84;;;25.14;49.59
10978;BME280;5542;48.272;10.794;2022-08-21T07:50:53;95816.31;;;25.32;50.02
10978;BME280;5542;48.272;10.794;2022-08-21T07:53:20;95807.97;;;25.63;47.09
10978;BME280;5542;48.272;10.794;2022-08-21T07:55:47;95802.97;;;25.91;44.00
10978;BME280;5542;48.272;10.794;2022-08-21T07:58:15;95808.34;;;25.91;45.47
10978;BME280;5542;48.272;10.794;2022-08-21T08:00:42;95805.63;;;26.00;45.41
10978;BME280;5542;48.272;10.794;2022-08-21T08:03:09;95802.84;;;26.17;43.61
10978;BME280;5542;48.272;10.794;2022-08-21T08:05:35;95806.94;;;26.23;43.89
10978;BME280;5542;48.272;10.794;2022-08-21T08:08:04;95795.75;;;26.34;42.77
10978;BME280;5542;48.272;10.794;2022-08-21T08:10:31;95804.19;;;26.32;43.57
10978;BME280;5542;48.272;10.794;2022-08-21T08:12:58;95795.50;;;26.26;44.66
10978;BME280;5542;48.272;10.794;2022-08-21T08:15:27;95804.63;;;26.34;46.10
10978;BME280;5542;48.272;10.794;2022-08-21T08:17:54;95804.03;;;26.58;44.72
10978;BME280;5542;48.272;10.794;2022-08-21T08:20:21;95808.91;;;26.86;45.50
10978;BME280;5542;48.272;10.794;2022-08-21T08:22:48;95801.09;;;27.05;44.81
10978;BME280;5542;48.272;10.794;2022-08-21T08:25:16;95795.31;;;27.15;43.22
10978;BME280;5542;48.272;10.794;2022-08-21T08:27:43;95802.84;;;27.10;45.26
10978;BME280;5542;48.272;10.794;2022-08-21T08:30:12;95795.41;;;27.40;44.55
10978;BME280;5542;48.272;10.794;2022-08-21T08:32:41;95786.72;;;27.79;41.81
10978;BME280;5542;48.272;10.794;2022-08-21T08:35:08;95794.75;;;27.67;42.42
10978;BME280;5542;48.272;10.794;2022-08-21T08:37:36;95796.63;;;27.88;43.15
10978;BME280;5542;48.272;10.794;2022-08-21T08:40:06;95787.38;;;27.76;40.85
10978;BME280;5542;48.272;10.794;2022-08-21T08:42:34;95802.25;;;27.83;42.87
10978;BME280;5542;48.272;10.794;2022-08-21T08:45:05;95793.47;;;27.98;41.83
10978;BME280;5542;48.272;10.794;2022-08-21T08:47:37;95789.06;;;28.05;41.09
10978;BME280;5542;48.272;10.794;2022-08-21T08:50:08;95784.78;;;28.17;40.37
10978;BME280;5542;48.272;10.794;2022-08-21T08:52:40;95792.09;;;28.28;41.10
10978;BME280;5542;48.272;10.794;2022-08-21T08:55:13;95787.25;;;28.34;38.20
10978;BME280;5542;48.272;10.794;2022-08-21T08:57:45;95794.72;;;28.25;40.53
10978;BME280;5542;48.272;10.794;2022-08-21T09:00:15;95792.53;;;28.43;40.94
10978;BME280;5542;48.272;10.794;2022-08-21T09:02:43;95782.84;;;28.29;38.95
10978;BME280;5542;48.272;10.794;2022-08-21T09:05:23;95802.47;;;28.39;41.57
10978;BME280;5542;48.272;10.794;2022-08-21T09:08:09;95800.88;;;28.50;41.51
10978;BME280;5542;48.272;10.794;2022-08-21T09:10:46;95789.09;;;28.82;39.74
10978;BME280;5542;48.272;10.794;2022-08-21T09:13:21;95788.25;;;29.22;38.07
10978;BME280;5542;48.272;10.794;2022-08-21T09:15:54;95786.44;;;29.26;39.35
10978;BME280;5542;48.272;10.794;2022-08-21T09:18:36;95784.53;;;29.43;36.56
10978;BME280;5542;48.272;10.794;2022-08-21T09:21:14;95786.28;;;29.35;36.67
10978;BME280;5542;48.272;10.794;2022-08-21T09:23:49;95783.75;;;28.98;38.95
10978;BME280;5542;48.272;10.794;2022-08-21T09:26:20;95774.13;;;28.73;36.57
10978;BME280;5542;48.272;10.794;2022-08-21T09:28:52;95775.88;;;28.81;36.94
10978;BME280;5542;48.272;10.794;2022-08-21T09:31:23;95778.75;;;29.00;38.02
10978;BME280;5542;48.272;10.794;2022-08-21T09:33:57;95776.63;;;29.22;38.75
10978;BME280;5542;48.272;10.794;2022-08-21T09:36:35;95776.91;;;29.32;39.01
10978;BME280;5542;48.272;10.794;2022-08-21T09:39:04;95766.31;;;29.55;34.10
10978;BME280;5542;48.272;10.794;2022-08-21T09:41:33;95773.03;;;29.77;37.05
10978;BME280;5542;48.272;10.794;2022-08-21T09:44:02;95769.63;;;29.80;33.25
10978;BME280;5542;48.272;10.794;2022-08-21T09:46:29;95769.56;;;29.33;36.94
10978;BME280;5542;48.272;10.794;2022-08-21T09:48:57;95770.59;;;29.28;33.95
10978;BME280;5542;48.272;10.794;2022-08-21T09:51:28;95775.41;;;29.19;36.81
10978;BME280;5542;48.272;10.794;2022-08-21T09:53:57;95766.53;;;29.34;36.00
10978;BME280;5542;48.272;10.794;2022-08-21T09:56:28;95763.81;;;29.50;36.35
10978;BME280;5542;48.272;10.794;2022-08-21T09:59:15;95761.13;;;29.66;34.53
10978;BME280;5542;48.272;10.794;2022-08-21T10:01:44;95763.59;;;29.71;35.79
10978;BME280;5542;48.272;10.794;2022-08-21T10:04:11;95756.50;;;29.67;33.77
10978;BME280;5542;48.272;10.794;2022-08-21T10:06:39;95759.88;;;29.48;36.07
10978;BME280;5542;48.272;10.794;2022-08-21T10:09:08;95761.38;;;29.45;35.46
10978;BME280;5542;48.272;10.794;2022-08-21T10:11:36;95758.50;;;29.54;33.79
10978;BME280;5542;48.272;10.794;2022-08-21T10:14:12;95755.22;;;29.17;36.57
10978;BME280;5542;48.272;10.794;2022-08-21T10:16:49;95754.19;;;29.21;35.96
10978;BME280;5542;48.272;10.794;2022-08-21T10:19:26;95756.25;;;29.12;37.46
10978;BME280;5542;48.272;10.794;2022-08-21T10:22:05;95754.13;;;28.77;36.07
10978;BME280;5542;48.272;10.794;2022-08-21T10:24:38;95754.00;;;28.46;36.02
10978;BME280;5542;48.272;10.794;2022-08-21T10:27:15;95760.69;;;28.12;37.97
10978;BME280;5542;48.272;10.794;2022-08-21T10:29:51;95761.03;;;27.86;37.04
10978;BME280;5542;48.272;10.794;2022-08-21T10:32:34;95767.72;;;27.43;38.55
10978;BME280;5542;48.272;10.794;2022-08-21T10:35:09;95770.81;;;27.20;39.60
10978;BME280;5542;48.272;10.794;2022-08-21T10:37:48;95765.72;;;27.06;39.45
10978;BME280;5542;48.272;10.794;2022-08-21T10:40:24;95761.94;;;27.20;38.15
10978;BME280;5542;48.272;10.794;2022-08-21T10:43:03;95755.13;;;27.47;35.23
10978;BME280;5542;48.272;10.794;2022-08-21T10:45:42;95741.53;;;27.55;33.52
10978;BME280;5542;48.272;10.794;2022-08-21T10:48:19;95745.44;;;27.46;34.03
10978;BME280;5542;48.272;10.794;2022-08-21T10:50:52;95747.28;;;27.09;35.50
10978;BME280;5542;48.272;10.794;2022-08-21T10:53:42;95749.91;;;27.17;36.33
10978;BME280;5542;48.272;10.794;2022-08-21T10:56:16;95740.19;;;27.49;36.18
10978;BME280;5542;48.272;10.794;2022-08-21T10:58:49;95735.78;;;27.69;34.55
10978;BME280;5542;48.272;10.794;2022-08-21T11:01:24;95735.56;;;27.62;36.75
10978;BME280;5542;48.272;10.794;2022-08-21T11:04:00;95732.00;;;27.83;35.80
10978;BME280;5542;48.272;10.794;2022-08-21T11:06:32;95721.88;;;27.92;34.39
10978;BME280;5542;48.272;10.794;2022-08-21T11:09:08;95724.09;;;27.90;35.08
10978;BME280;5542;48.272;10.794;2022-08-21T11:11:38;95727.97;;;27.19;33.30
10978;BME280;5542;48.272;10.794;2022-08-21T11:14:11;95727.44;;;26.71;34.15
10978;BME280;5542;48.272;10.794;2022-08-21T11:16:42;95729.50;;;26.74;33.84
10978;BME280;5542;48.272;10.794;2022-08-21T11:19:15;95736.03;;;26.52;35.80
10978;BME280;5542;48.272;10.794;2022-08-21T11:21:48;95725.88;;;26.28;36.04
10978;BME280;5542;48.272;10.794;2022-08-21T11:24:24;95732.22;;;26.03;36.46
10978;BME280;5542;48.272;10.794;2022-08-21T11:27:01;95725.38;;;25.85;35.95
10978;BME280;5542;48.272;10.794;2022-08-21T11:29:33;95728.69;;;25.82;38.57
10978;BME280;5542;48.272;10.794;2022-08-21T11:32:12;95732.63;;;25.93;39.00
10978;BME280;5542;48.272;10.794;2022-08-21T11:34:54;95734.09;;;26.11;39.24
10978;BME280;5542;48.272;10.794;2022-08-21T11:37:36;95721.97;;;26.38;38.60
10978;BME280;5542;48.272;10.794;2022-08-21T11:40:21;95714.75;;;26.72;35.23
10978;BME280;5542;48.272;10.794;2022-08-21T11:42:57;95709.84;;;26.86;36.29
10978;BME280;5542;48.272;10.794;2022-08-21T11:45:32;95711.72;;;27.06;36.10
10978;BME280;5542;48.272;10.794;2022-08-21T11:48:07;95709.63;;;27.24;35.13
10978;BME280;5542;48.272;10.794;2022-08-21T11:50:38;95701.72;;;27.07;33.16
10978;BME280;5542;48.272;10.794;2022-08-21T11:53:09;95699.00;;;27.07;34.75
10978;BME280;5542;48.272;10.794;2022-08-21T11:55:43;95703.00;;;27.22;35.12
10978;BME280;5542;48.272;10.794;2022-08-21T11:58:15;95704.28;;;26.70;33.28
10978;BME280;5542;48.272;10.794;2022-08-21T12:00:46;95699.72;;;26.50;34.73
10978;BME280;5542;48.272;10.794;2022-08-21T12:03:22;95708.63;;;26.42;36.66
10978;BME280;5542;48.272;10.794;2022-08-21T12:05:53;95699.69;;;26.29;35.98
10978;BME280;5542;48.272;10.794;2022-08-21T12:08:27;95699.44;;;26.22;36.19
10978;BME280;5542;48.272;10.794;2022-08-21T12:11:03;95702.28;;;26.25;36.80
10978;BME280;5542;48.272;10.794;2022-08-21T12:13:32;95685.81;;;26.39;34.92
10978;BME280;5542;48.272;10.794;2022-08-21T12:16:08;95698.94;;;26.49;35.92
10978;BME280;5542;48.272;10.794;2022-08-21T12:18:35;95684.56;;;26.78;34.65
10978;BME280;5542;48.272;10.794;2022-08-21T12:21:16;95690.31;;;26.56;32.96
10978;BME280;5542;48.272;10.794;2022-08-21T12:23:45;95687.69;;;26.26;35.26
10978;BME280;5542;48.272;10.794;2022-08-21T12:26:26;95687.63;;;26.35;37.26
10978;BME280;5542;48.272;10.794;2022-08-21T12:29:05;95685.63;;;26.65;36.12
10978;BME280;5542;48.272;10.794;2022-08-21T12:31:34;95679.31;;;26.40;35.01
10978;BME280;5542;48.272;10.794;2022-08-21T12:34:02;95681.94;;;26.28;35.54
10978;BME280;5542;48.272;10.794;2022-08-21T12:36:41;95669.38;;;25.90;35.76
10978;BME280;5542;48.272;10.794;2022-08-21T12:39:14;95671.69;;;25.79;36.18
10978;BME280;5542;48.272;10.794;2022-08-21T12:41:47;95669.38;;;25.61;36.16
10978;BME280;5542;48.272;10.794;2022-08-21T12:44:22;95673.13;;;25.68;36.61
10978;BME280;5542;48.272;10.794;2022-08-21T12:46:54;95666.69;;;25.61;36.70
10978;BME280;5542;48.272;10.794;2022-08-21T12:49:26;95661.72;;;25.71;36.17
10978;BME280;5542;48.272;10.794;2022-08-21T12:52:00;95652.94;;;25.53;36.50
10978;BME280;5542;48.272;10.794;2022-08-21T12:54:29;95652.31;;;25.18;36.60
10978;BME280;5542;48.272;10.794;2022-08-21T12:57:00;95651.41;;;24.97;37.89
10978;BME280;5542;48.272;10.794;2022-08-21T12:59:27;95648.03;;;24.70;37.19
10978;BME280;5542;48.272;10.794;2022-08-21T13:01:55;95650.69;;;24.88;38.09
10978;BME280;5542;48.272;10.794;2022-08-21T13:04:26;95650.28;;;25.15;37.51
10978;BME280;5542;48.272;10.794;2022-08-21T13:06:59;95657.19;;;25.25;37.30
10978;BME280;5542;48.272;10.794;2022-08-21T13:09:28;95662.50;;;25.42;38.27
10978;BME280;5542;48.272;10.794;2022-08-21T13:11:57;95655.78;;;25.57;37.61